Time;durP1;ratioP1;P1;durP2;ratioP2;P2;SDS_P1;SDS_P2;PMS_P1;PMS_P2;Temp;Humidity;BMP_temperature;BMP_pressure;BME280_temperature;BME280_humidity;BME280_pressure;Samples;Min_cycle;Max_cycle;Signal;HPM_P1;HPM_P2
2022/11/04 00:01:24;;;;;;;2.87;1.00;;;;;;;;;;5069272;28;20040;-64
2022/11/04 00:03:52;;;;;;;2.90;1.20;;;;;;;;;;5069459;28;20498;-64
2022/11/04 00:06:18;;;;;;;3.47;1.20;;;;;;;;;;5069696;28;20124;-64
2022/11/04 00:08:48;;;;;;;2.57;1.00;;;;;;;;;;5069742;28;20500;-64
2022/11/04 00:14:13;;;;;;;2.70;0.83;;;;;;;;;;5056853;28;20136;-64
2022/11/04 00:19:24;;;;;;;2.97;1.00;;;;;;;;;;5069923;28;20060;-65
2022/11/04 00:29:53;;;;;;;3.33;0.40;;;;;;;;;;5069351;28;20135;-64
2022/11/04 00:35:05;;;;;;;4.23;0.53;;;;;;;;;;5069275;28;20045;-64
2022/11/04 00:37:31;;;;;;;2.73;0.67;;;;;;;;;;5069151;28;20045;-64
2022/11/04 00:39:57;;;;;;;2.47;0.63;;;;;;;;;;5067948;28;20048;-64
2022/11/04 00:42:23;;;;;;;2.43;0.70;;;;;;;;;;5069351;28;20094;-64
2022/11/04 00:44:49;;;;;;;2.53;0.97;;;;;;;;;;5069294;28;20051;-64
2022/11/04 00:47:15;;;;;;;7.50;1.33;;;;;;;;;;5068774;28;20052;-64
2022/11/04 00:49:41;;;;;;;4.57;1.70;;;;;;;;;;5068001;28;20053;-64
2022/11/04 00:52:07;;;;;;;3.73;1.50;;;;;;;;;;5068989;28;20056;-64
2022/11/04 00:54:33;;;;;;;3.20;1.10;;;;;;;;;;5069200;28;20060;-64
2022/11/04 00:56:59;;;;;;;4.37;1.30;;;;;;;;;;5067603;28;20468;-64
2022/11/04 00:59:25;;;;;;;4.27;1.30;;;;;;;;;;5068483;28;20048;-64
2022/11/04 01:01:51;;;;;;;6.43;0.90;;;;;;;;;;5069125;28;20043;-64
2022/11/04 01:04:17;;;;;;;5.60;1.13;;;;;;;;;;5069003;28;20045;-64
2022/11/04 01:06:43;;;;;;;5.00;1.10;;;;;;;;;;5067834;28;20526;-64
2022/11/04 01:09:11;;;;;;;4.43;1.90;;;;;;;;;;5068602;28;20048;-64
2022/11/04 01:11:37;;;;;;;3.77;1.50;;;;;;;;;;5069100;28;20647;-64
2022/11/04 01:14:03;;;;;;;5.93;1.20;;;;;;;;;;5068930;28;20055;-64
2022/11/04 01:16:30;;;;;;;3.50;1.10;;;;;;;;;;5067576;28;20387;-64
2022/11/04 01:18:56;;;;;;;4.70;1.10;;;;;;;;;;5069066;28;20521;-64
2022/11/04 01:21:22;;;;;;;3.83;1.27;;;;;;;;;;5067832;28;20044;-64
2022/11/04 01:23:48;;;;;;;5.43;1.07;;;;;;;;;;5068982;28;20410;-64
2022/11/04 01:26:19;;;;;;;1.80;0.83;;;;;;;;;;5068474;28;20071;-64
2022/11/04 01:28:45;;;;;;;3.90;1.37;;;;;;;;;;5068441;28;20052;-64
2022/11/04 01:31:13;;;;;;;5.87;1.00;;;;;;;;;;5068556;28;20052;-64
2022/11/04 01:33:39;;;;;;;6.03;1.37;;;;;;;;;;5068746;28;20048;-64
2022/11/04 01:36:06;;;;;;;5.70;1.30;;;;;;;;;;5069151;28;20044;-64
2022/11/04 01:38:32;;;;;;;7.90;1.43;;;;;;;;;;5068761;28;20083;-64
2022/11/04 01:40:58;;;;;;;8.90;1.50;;;;;;;;;;5068679;28;20051;-64
2022/11/04 01:43:43;;;;;;;4.90;1.90;;;;;;;;;;5068982;28;20041;-64
2022/11/04 01:46:12;;;;;;;5.67;1.60;;;;;;;;;;5072043;28;20128;-64
2022/11/04 01:48:38;;;;;;;6.97;1.83;;;;;;;;;;5072128;28;20041;-64
2022/11/04 01:51:05;;;;;;;7.97;2.60;;;;;;;;;;5071956;28;20518;-64
2022/11/04 01:53:34;;;;;;;10.10;2.40;;;;;;;;;;5071996;28;20407;-64
2022/11/04 01:56:03;;;;;;;5.70;2.30;;;;;;;;;;5072049;28;20044;-65
2022/11/04 01:58:31;;;;;;;17.13;3.87;;;;;;;;;;5071918;28;20056;-65
2022/11/04 02:00:57;;;;;;;18.50;3.53;;;;;;;;;;5072099;28;20052;-65
2022/11/04 02:03:26;;;;;;;8.30;4.07;;;;;;;;;;5071344;28;20071;-65
2022/11/04 02:05:52;;;;;;;11.57;5.03;;;;;;;;;;5072061;28;20052;-65
2022/11/04 02:08:18;;;;;;;14.77;5.10;;;;;;;;;;5071895;28;20466;-66
2022/11/04 02:10:52;;;;;;;20.67;5.97;;;;;;;;;;5071816;28;20469;-65
2022/11/04 02:13:18;;;;;;;19.23;7.67;;;;;;;;;;5071529;28;20408;-65
2022/11/04 02:16:00;;;;;;;15.23;6.07;;;;;;;;;;5071062;28;20079;-65
2022/11/04 02:18:36;;;;;;;15.23;6.83;;;;;;;;;;5071335;28;20624;-65
2022/11/04 02:21:08;;;;;;;13.13;6.10;;;;;;;;;;5071804;28;20055;-65
2022/11/04 02:23:34;;;;;;;11.63;5.53;;;;;;;;;;5071769;28;20052;-66
2022/11/04 02:26:18;;;;;;;9.90;4.60;;;;;;;;;;5070178;28;20495;-65
2022/11/04 02:28:44;;;;;;;8.83;4.30;;;;;;;;;;5071380;28;20486;-65
2022/11/04 02:31:17;;;;;;;0.00;0.00;;;;;;;;;;5069676;28;20053;-66
2022/11/04 02:33:53;;;;;;;1.13;0.30;;;;;;;;;;5071520;28;20052;-65
2022/11/04 02:36:22;;;;;;;0.00;0.00;;;;;;;;;;5071262;28;20593;-65
2022/11/04 02:38:53;;;;;;;0.00;0.00;;;;;;;;;;5070049;28;20387;-65
2022/11/04 02:41:26;;;;;;;0.10;0.10;;;;;;;;;;5071347;28;20044;-64
2022/11/04 02:43:52;;;;;;;0.10;0.10;;;;;;;;;;5070771;28;20109;-64
2022/11/04 02:46:21;;;;;;;0.00;0.00;;;;;;;;;;5071209;28;20059;-64
2022/11/04 02:48:52;;;;;;;0.37;0.37;;;;;;;;;;5069928;28;20052;-64
2022/11/04 02:51:21;;;;;;;0.00;0.00;;;;;;;;;;5071134;28;20583;-64
2022/11/04 02:53:49;;;;;;;0.00;0.00;;;;;;;;;;5070641;28;20048;-65
2022/11/04 02:56:17;;;;;;;0.00;0.00;;;;;;;;;;5070456;28;20044;-65
2022/11/04 02:58:45;;;;;;;0.20;0.20;;;;;;;;;;5070678;28;20051;-65
2022/11/04 03:01:14;;;;;;;0.00;0.00;;;;;;;;;;5070840;28;20048;-65
2022/11/04 03:03:42;;;;;;;0.00;0.00;;;;;;;;;;5070659;28;20045;-66
2022/11/04 03:06:10;;;;;;;0.00;0.00;;;;;;;;;;5070356;28;20048;-66
2022/11/04 03:08:39;;;;;;;0.00;0.00;;;;;;;;;;5070483;28;20753;-65
2022/11/04 03:11:11;;;;;;;0.03;0.03;;;;;;;;;;5069518;28;20098;-65
2022/11/04 03:13:46;;;;;;;0.00;0.00;;;;;;;;;;5070709;28;20106;-65
2022/11/04 03:16:17;;;;;;;0.20;0.20;;;;;;;;;;5069012;28;20357;-65
2022/11/04 03:18:44;;;;;;;0.53;0.53;;;;;;;;;;5070088;28;20055;-65
2022/11/04 03:21:12;;;;;;;0.00;0.00;;;;;;;;;;5070099;28;20049;-65
2022/11/04 03:23:39;;;;;;;0.20;0.20;;;;;;;;;;5068903;28;20052;-66
2022/11/04 03:26:18;;;;;;;0.00;0.00;;;;;;;;;;5069913;28;20060;-65
2022/11/04 03:28:56;;;;;;;5.40;1.87;;;;;;;;;;5070164;28;20049;-65
2022/11/04 03:31:24;;;;;;;4.33;1.37;;;;;;;;;;5070571;28;20052;-65
2022/11/04 03:33:52;;;;;;;16.90;2.10;;;;;;;;;;5070218;28;20048;-66
2022/11/04 03:36:18;;;;;;;7.60;1.53;;;;;;;;;;5070004;28;20045;-65
2022/11/04 03:38:45;;;;;;;8.50;1.50;;;;;;;;;;5069892;28;20056;-65
2022/11/04 03:41:14;;;;;;;5.07;0.87;;;;;;;;;;5068798;28;20040;-65
2022/11/04 03:43:41;;;;;;;6.17;0.87;;;;;;;;;;5070246;28;20043;-66
2022/11/04 03:46:08;;;;;;;0.00;0.00;;;;;;;;;;5068421;28;20059;-65
2022/11/04 03:48:34;;;;;;;0.20;0.20;;;;;;;;;;5068465;28;20045;-65
2022/11/04 03:51:00;;;;;;;0.00;0.00;;;;;;;;;;5068762;28;20453;-65
2022/11/04 03:53:28;;;;;;;0.10;0.10;;;;;;;;;;5068183;28;20129;-64
2022/11/04 03:56:00;;;;;;;0.00;0.00;;;;;;;;;;5068462;28;20055;-64
2022/11/04 03:58:32;;;;;;;0.17;0.17;;;;;;;;;;5068019;28;20557;-64
2022/11/04 04:01:15;;;;;;;0.00;0.00;;;;;;;;;;5068235;28;20048;-64
2022/11/04 04:03:44;;;;;;;0.00;0.00;;;;;;;;;;5069665;28;20048;-65
2022/11/04 04:06:15;;;;;;;0.00;0.00;;;;;;;;;;5068601;28;20498;-65
2022/11/04 04:08:51;;;;;;;0.00;0.00;;;;;;;;;;5069745;28;20045;-65
2022/11/04 04:11:36;;;;;;;0.00;0.00;;;;;;;;;;5068353;28;20048;-65
2022/11/04 04:14:10;;;;;;;0.00;0.00;;;;;;;;;;5068084;28;20049;-64
2022/11/04 04:16:42;;;;;;;0.00;0.00;;;;;;;;;;5069152;28;20045;-64
2022/11/04 04:19:11;;;;;;;0.10;0.10;;;;;;;;;;5068941;28;20052;-64
2022/11/04 04:21:42;;;;;;;0.00;0.00;;;;;;;;;;5069429;28;20837;-64
2022/11/04 04:29:40;;;;;;;0.00;0.00;;;;;;;;;;5069134;28;20046;-64
2022/11/04 04:32:06;;;;;;;0.00;0.00;;;;;;;;;;5068884;28;20048;-64
2022/11/04 04:34:32;;;;;;;0.00;0.00;;;;;;;;;;5069638;28;20052;-64
2022/11/04 04:37:06;;;;;;;0.37;0.20;;;;;;;;;;5069028;28;20049;-64
2022/11/04 04:45:06;;;;;;;0.30;0.30;;;;;;;;;;5068670;28;20056;-64
2022/11/04 04:47:35;;;;;;;0.00;0.00;;;;;;;;;;5068994;28;20041;-64
2022/11/04 04:50:01;;;;;;;0.00;0.00;;;;;;;;;;5069044;28;20048;-64
2022/11/04 04:52:30;;;;;;;1.27;0.40;;;;;;;;;;5068959;28;20048;-64
2022/11/04 04:54:56;;;;;;;0.00;0.00;;;;;;;;;;5069011;28;20056;-64
2022/11/04 04:57:22;;;;;;;0.00;0.00;;;;;;;;;;5069244;28;20036;-64
2022/11/04 04:59:48;;;;;;;0.00;0.00;;;;;;;;;;5068998;28;20517;-65
2022/11/04 05:02:14;;;;;;;0.00;0.00;;;;;;;;;;5068182;28;20403;-64
2022/11/04 05:04:40;;;;;;;0.03;0.03;;;;;;;;;;5069123;28;20048;-64
2022/11/04 05:07:08;;;;;;;0.10;0.10;;;;;;;;;;5067446;28;20106;-65
2022/11/04 05:09:34;;;;;;;0.03;0.03;;;;;;;;;;5067700;28;20052;-65
2022/11/04 05:12:01;;;;;;;0.00;0.00;;;;;;;;;;5067643;28;20098;-64
2022/11/04 05:14:27;;;;;;;0.00;0.00;;;;;;;;;;5068805;28;20053;-64
2022/11/04 05:16:53;;;;;;;0.00;0.00;;;;;;;;;;5068577;28;20044;-64
2022/11/04 05:19:19;;;;;;;0.00;0.00;;;;;;;;;;5072312;28;20098;-64
2022/11/04 05:21:45;;;;;;;0.00;0.00;;;;;;;;;;5071178;28;20045;-64
2022/11/04 05:24:11;;;;;;;0.00;0.00;;;;;;;;;;5072408;28;20410;-64
2022/11/04 05:26:37;;;;;;;0.00;0.00;;;;;;;;;;5071266;28;20045;-64
2022/11/04 05:29:03;;;;;;;0.00;0.00;;;;;;;;;;5072237;28;20055;-64
2022/11/04 05:31:29;;;;;;;0.20;0.20;;;;;;;;;;5072593;28;20056;-64
2022/11/04 05:33:57;;;;;;;0.00;0.00;;;;;;;;;;5072443;28;20059;-64
2022/11/04 05:36:23;;;;;;;0.00;0.00;;;;;;;;;;5072156;28;20045;-64
2022/11/04 05:38:50;;;;;;;0.00;0.00;;;;;;;;;;5072178;28;20048;-64
2022/11/04 05:41:26;;;;;;;0.00;0.00;;;;;;;;;;5070735;28;20430;-64
2022/11/04 05:43:52;;;;;;;0.00;0.00;;;;;;;;;;5072217;28;20045;-64
2022/11/04 05:46:18;;;;;;;0.10;0.10;;;;;;;;;;5071542;28;20044;-64
2022/11/04 05:48:44;;;;;;;0.10;0.10;;;;;;;;;;5071156;28;20045;-64
2022/11/04 05:51:18;;;;;;;1.23;0.50;;;;;;;;;;5069327;28;20503;-64
2022/11/04 05:53:44;;;;;;;7.68;2.53;;;;;;;;;;5068929;28;20060;-64
2022/11/04 05:56:10;;;;;;;7.93;2.30;;;;;;;;;;5069333;28;20044;-64
2022/11/04 05:58:36;;;;;;;7.73;2.40;;;;;;;;;;5069335;28;20053;-64
2022/11/04 06:01:11;;;;;;;5.83;1.97;;;;;;;;;;5069416;28;20501;-64
2022/11/04 06:03:37;;;;;;;7.17;1.60;;;;;;;;;;5069303;28;20123;-64
2022/11/04 06:06:04;;;;;;;6.30;2.20;;;;;;;;;;5068021;28;20056;-64
2022/11/04 06:08:30;;;;;;;5.90;1.70;;;;;;;;;;5069123;28;20074;-65
2022/11/04 06:10:56;;;;;;;6.47;1.40;;;;;;;;;;5069040;28;20415;-64
2022/11/04 06:13:22;;;;;;;3.17;1.43;;;;;;;;;;5068896;28;20053;-64
2022/11/04 06:15:48;;;;;;;5.87;1.60;;;;;;;;;;5068733;28;20041;-64
2022/11/04 06:18:14;;;;;;;3.37;1.37;;;;;;;;;;5070610;28;20040;-64
2022/11/04 06:20:40;;;;;;;6.83;1.53;;;;;;;;;;5070468;28;20083;-64
2022/11/04 06:23:06;;;;;;;3.10;1.47;;;;;;;;;;5069120;28;20045;-64
2022/11/04 06:25:32;;;;;;;4.13;1.27;;;;;;;;;;5070752;28;20040;-64
2022/11/04 06:27:58;;;;;;;7.53;1.50;;;;;;;;;;5070777;28;20067;-64
2022/11/04 06:30:24;;;;;;;3.47;1.50;;;;;;;;;;5070147;28;20521;-64
2022/11/04 06:32:50;;;;;;;3.20;1.60;;;;;;;;;;5068887;28;20045;-64
2022/11/04 06:35:16;;;;;;;6.13;1.90;;;;;;;;;;5070618;28;20047;-64
2022/11/04 06:37:42;;;;;;;4.40;1.77;;;;;;;;;;5070647;28;20047;-64
2022/11/04 06:40:08;;;;;;;6.93;1.70;;;;;;;;;;5070208;28;20135;-64
2022/11/04 06:42:34;;;;;;;3.57;1.60;;;;;;;;;;5070600;28;20074;-64
2022/11/04 06:45:00;;;;;;;3.93;1.70;;;;;;;;;;5070574;28;20048;-64
2022/11/04 06:47:26;;;;;;;6.63;1.97;;;;;;;;;;5068237;28;20457;-64
2022/11/04 06:49:52;;;;;;;5.03;2.30;;;;;;;;;;5070106;28;20310;-64
2022/11/04 06:52:18;;;;;;;5.13;2.20;;;;;;;;;;5069800;28;20099;-64
2022/11/04 06:54:46;;;;;;;5.97;2.93;;;;;;;;;;5070426;28;20503;-64
2022/11/04 06:57:13;;;;;;;9.87;3.43;;;;;;;;;;5069653;28;20123;-64
2022/11/04 06:59:39;;;;;;;10.73;4.00;;;;;;;;;;5069743;28;20083;-64
2022/11/04 07:02:05;;;;;;;10.43;4.50;;;;;;;;;;5069595;28;20048;-64
2022/11/04 07:04:31;;;;;;;13.40;5.10;;;;;;;;;;5069552;28;20083;-64
2022/11/04 07:06:57;;;;;;;18.13;6.13;;;;;;;;;;5069686;28;20076;-64
2022/11/04 07:09:23;;;;;;;17.83;6.90;;;;;;;;;;5067935;28;20159;-64
2022/11/04 07:11:49;;;;;;;20.00;8.07;;;;;;;;;;5069110;28;20082;-64
2022/11/04 07:14:15;;;;;;;22.30;9.27;;;;;;;;;;5069485;28;20185;-64
2022/11/04 07:16:42;;;;;;;24.50;11.10;;;;;;;;;;5069431;28;20580;-64
2022/11/04 07:19:08;;;;;;;39.30;12.83;;;;;;;;;;5069048;28;20075;-64
2022/11/04 07:21:34;;;;;;;28.87;12.97;;;;;;;;;;5068925;28;20044;-64
2022/11/04 07:24:00;;;;;;;36.47;14.33;;;;;;;;;;5069358;28;20052;-64
2022/11/04 07:26:26;;;;;;;36.47;14.10;;;;;;;;;;5068891;28;20052;-63
2022/11/04 07:28:52;;;;;;;56.80;18.07;;;;;;;;;;5069198;28;20569;-64
2022/11/04 07:31:19;;;;;;;42.80;16.33;;;;;;;;;;5069112;28;20221;-64
2022/11/04 07:33:50;;;;;;;52.20;17.93;;;;;;;;;;5067987;28;20185;-64
2022/11/04 07:36:16;;;;;;;45.43;17.63;;;;;;;;;;5068700;28;20141;-64
2022/11/04 07:38:42;;;;;;;27.70;14.63;;;;;;;;;;5069043;28;20048;-64
2022/11/04 07:41:08;;;;;;;41.87;16.97;;;;;;;;;;5067751;28;20049;-64
2022/11/04 07:43:34;;;;;;;35.13;16.53;;;;;;;;;;5068928;28;20139;-65
2022/11/04 07:46:00;;;;;;;59.57;21.17;;;;;;;;;;5068865;28;20040;-64
2022/11/04 07:48:26;;;;;;;41.53;18.50;;;;;;;;;;5068303;28;20050;-65
2022/11/04 07:50:59;;;;;;;44.10;17.70;;;;;;;;;;5068915;28;20040;-64
2022/11/04 07:53:26;;;;;;;27.43;13.77;;;;;;;;;;5067691;28;20497;-64
2022/11/04 07:55:51;;;;;;;30.90;14.20;;;;;;;;;;5068647;28;20041;-64
2022/11/04 07:58:19;;;;;;;38.47;16.00;;;;;;;;;;5068061;28;20402;-64
2022/11/04 08:00:45;;;;;;;51.17;19.50;;;;;;;;;;5068627;28;20560;-64
2022/11/04 08:03:11;;;;;;;38.83;16.97;;;;;;;;;;5068513;28;20044;-64
2022/11/04 08:05:37;;;;;;;43.00;18.77;;;;;;;;;;5068660;28;20631;-64
2022/11/04 08:08:03;;;;;;;47.80;19.93;;;;;;;;;;5068333;28;20040;-64
2022/11/04 08:10:29;;;;;;;45.57;18.43;;;;;;;;;;5068187;28;20381;-64
2022/11/04 08:12:56;;;;;;;45.30;17.63;;;;;;;;;;5068223;28;20056;-64
2022/11/04 08:15:22;;;;;;;48.80;19.07;;;;;;;;;;5067282;28;20102;-64
2022/11/04 08:17:48;;;;;;;59.37;20.33;;;;;;;;;;5068346;28;20048;-64
2022/11/04 08:20:14;;;;;;;48.57;19.23;;;;;;;;;;5067653;28;20051;-64
2022/11/04 08:22:40;;;;;;;49.47;19.73;;;;;;;;;;5068377;28;20056;-64
2022/11/04 08:25:06;;;;;;;46.10;19.30;;;;;;;;;;5058558;28;20048;-64
2022/11/04 08:27:34;;;;;;;63.50;24.10;;;;;;;;;;5059110;28;20098;-64
2022/11/04 08:30:00;;;;;;;55.80;22.20;;;;;;;;;;5056221;28;20040;-64
2022/11/04 08:32:26;;;;;;;62.17;22.47;;;;;;;;;;5066976;28;20052;-64
2022/11/04 08:34:52;;;;;;;51.80;22.43;;;;;;;;;;5066369;28;20052;-63
2022/11/04 08:37:18;;;;;;;51.53;22.30;;;;;;;;;;5067574;28;20132;-64
2022/11/04 08:39:44;;;;;;;61.50;23.67;;;;;;;;;;5067784;28;20056;-64
2022/11/04 08:42:10;;;;;;;57.67;22.37;;;;;;;;;;5063041;28;20048;-64
2022/11/04 08:44:38;;;;;;;80.30;25.17;;;;;;;;;;5067960;28;20045;-64
2022/11/04 08:47:04;;;;;;;63.63;24.07;;;;;;;;;;5047950;28;20495;-64
2022/11/04 08:49:30;;;;;;;78.60;26.93;;;;;;;;;;5059729;28;20051;-64
2022/11/04 08:51:58;;;;;;;60.37;23.50;;;;;;;;;;5068241;28;20406;-64
2022/11/04 08:54:24;;;;;;;71.63;25.03;;;;;;;;;;5071603;28;20079;-64
2022/11/04 08:56:51;;;;;;;59.40;24.37;;;;;;;;;;5072158;28;20080;-64
2022/11/04 08:59:17;;;;;;;66.53;25.40;;;;;;;;;;5072189;28;20053;-64
2022/11/04 09:01:43;;;;;;;71.90;27.93;;;;;;;;;;5072109;28;20091;-64
2022/11/04 09:04:12;;;;;;;71.03;28.17;;;;;;;;;;5071712;28;20460;-64
2022/11/04 09:06:40;;;;;;;78.80;29.73;;;;;;;;;;5072226;28;20056;-64
2022/11/04 09:09:07;;;;;;;75.57;30.83;;;;;;;;;;5071904;28;20079;-64
2022/11/04 09:11:36;;;;;;;106.80;35.47;;;;;;;;;;5070048;28;20091;-64
2022/11/04 09:14:03;;;;;;;93.30;34.73;;;;;;;;;;5052046;28;20052;-64
2022/11/04 09:16:30;;;;;;;104.50;35.13;;;;;;;;;;5051313;28;20084;-64
2022/11/04 09:18:57;;;;;;;90.70;35.60;;;;;;;;;;5051886;28;20045;-64
2022/11/04 09:21:24;;;;;;;87.90;34.10;;;;;;;;;;5051827;28;20521;-63
2022/11/04 09:23:50;;;;;;;110.83;38.67;;;;;;;;;;5051802;28;20153;-64
2022/11/04 09:26:16;;;;;;;90.07;33.90;;;;;;;;;;5051665;28;20055;-64
2022/11/04 09:28:42;;;;;;;90.80;36.23;;;;;;;;;;5051742;28;20064;-64
2022/11/04 09:31:16;;;;;;;82.97;34.57;;;;;;;;;;5050976;28;20053;-64
2022/11/04 09:33:42;;;;;;;102.93;38.80;;;;;;;;;;5051840;28;20037;-64
2022/11/04 09:36:09;;;;;;;89.40;37.60;;;;;;;;;;5051239;28;20518;-64
2022/11/04 09:38:39;;;;;;;111.83;42.33;;;;;;;;;;5053109;28;20175;-63
2022/11/04 09:41:28;;;;;;;98.40;39.47;;;;;;;;;;5052397;28;20504;-64
2022/11/04 09:43:54;;;;;;;74.37;31.20;;;;;;;;;;5053330;28;20044;-63
2022/11/04 09:46:20;;;;;;;55.80;28.03;;;;;;;;;;5071409;28;20400;-64
2022/11/04 09:48:54;;;;;;;77.20;31.77;;;;;;;;;;5069936;28;20072;-63
2022/11/04 09:51:22;;;;;;;56.17;26.83;;;;;;;;;;5071225;28;20045;-64
2022/11/04 09:53:52;;;;;;;56.67;26.73;;;;;;;;;;5070818;28;20036;-64
2022/11/04 09:56:20;;;;;;;64.60;29.60;;;;;;;;;;5071124;28;20082;-63
2022/11/04 09:58:47;;;;;;;60.30;28.93;;;;;;;;;;5070631;28;20564;-64
2022/11/04 10:01:16;;;;;;;67.43;30.60;;;;;;;;;;5070946;28;20103;-63
2022/11/04 10:04:01;;;;;;;58.73;28.13;;;;;;;;;;5070231;28;20063;-64
2022/11/04 10:06:32;;;;;;;62.77;30.37;;;;;;;;;;5070546;28;20052;-64
2022/11/04 10:09:04;;;;;;;63.67;28.90;;;;;;;;;;5068225;28;20056;-64
2022/11/04 10:11:36;;;;;;;73.33;30.87;;;;;;;;;;5068864;28;20092;-64
2022/11/04 10:14:10;;;;;;;62.20;28.80;;;;;;;;;;5050395;28;20132;-64
2022/11/04 10:16:54;;;;;;;56.87;28.27;;;;;;;;;;5068181;28;20140;-64
2022/11/04 10:19:23;;;;;;;63.80;29.63;;;;;;;;;;5070499;28;20052;-63
2022/11/04 10:22:22;;;;;;;59.47;30.33;;;;;;;;;;5070170;28;20084;-63
2022/11/04 10:24:57;;;;;;;65.53;30.73;;;;;;;;;;5057836;28;20101;-63
2022/11/04 10:27:26;;;;;;;60.77;29.97;;;;;;;;;;5070458;28;20052;-64
2022/11/04 10:29:53;;;;;;;54.50;31.07;;;;;;;;;;5070639;28;20041;-63
2022/11/04 10:32:42;;;;;;;50.97;28.10;;;;;;;;;;5070432;28;20048;-63
2022/11/04 10:35:14;;;;;;;61.27;30.77;;;;;;;;;;5070280;28;20410;-63
2022/11/04 10:37:40;;;;;;;55.27;30.30;;;;;;;;;;5070050;28;20394;-63
2022/11/04 10:40:20;;;;;;;57.30;29.33;;;;;;;;;;5068375;28;20048;-64
2022/11/04 10:42:46;;;;;;;63.57;31.93;;;;;;;;;;5058112;28;20041;-63
2022/11/04 10:45:13;;;;;;;55.70;29.03;;;;;;;;;;5050273;28;20513;-63
2022/11/04 10:47:39;;;;;;;49.57;29.10;;;;;;;;;;5050437;28;20066;-64
2022/11/04 10:50:11;;;;;;;50.83;27.40;;;;;;;;;;5049617;28;20509;-63
2022/11/04 10:52:38;;;;;;;46.07;28.47;;;;;;;;;;5049074;28;20499;-63
2022/11/04 10:55:30;;;;;;;46.70;29.07;;;;;;;;;;5049995;28;20329;-63
2022/11/04 10:58:00;;;;;;;47.90;28.00;;;;;;;;;;5048861;28;20053;-63
2022/11/04 11:00:39;;;;;;;45.33;28.20;;;;;;;;;;5049736;28;20049;-63
2022/11/04 11:03:23;;;;;;;41.97;28.30;;;;;;;;;;5049261;28;20113;-64
2022/11/04 11:05:49;;;;;;;36.90;25.77;;;;;;;;;;5048289;28;20057;-64
2022/11/04 11:08:36;;;;;;;34.30;23.97;;;;;;;;;;5050029;28;20045;-63
2022/11/04 11:11:02;;;;;;;32.67;21.97;;;;;;;;;;5048430;28;20045;-63
2022/11/04 11:13:34;;;;;;;35.10;24.40;;;;;;;;;;5065253;28;20052;-63
2022/11/04 11:16:04;;;;;;;33.07;21.63;;;;;;;;;;5069427;28;20044;-64
2022/11/04 11:18:30;;;;;;;20.93;17.17;;;;;;;;;;5068319;28;20045;-63
2022/11/04 11:21:06;;;;;;;23.63;18.10;;;;;;;;;;5069622;28;20048;-63
2022/11/04 11:23:35;;;;;;;25.77;17.20;;;;;;;;;;5068469;28;20145;-63
2022/11/04 11:26:03;;;;;;;22.30;17.60;;;;;;;;;;5069202;28;20083;-63
2022/11/04 11:28:36;;;;;;;23.47;16.70;;;;;;;;;;5069811;28;20041;-63
2022/11/04 11:31:04;;;;;;;22.58;17.63;;;;;;;;;;5069565;28;20055;-63
2022/11/04 11:33:40;;;;;;;21.97;15.67;;;;;;;;;;5069187;28;20049;-64
2022/11/04 11:36:11;;;;;;;19.63;14.60;;;;;;;;;;5069415;28;20048;-63
2022/11/04 11:38:38;;;;;;;20.83;14.43;;;;;;;;;;5066095;28;20052;-63
2022/11/04 11:41:22;;;;;;;21.30;15.53;;;;;;;;;;5069373;28;20051;-63
2022/11/04 11:43:51;;;;;;;20.57;13.73;;;;;;;;;;5048998;28;20507;-63
2022/11/04 11:46:25;;;;;;;20.80;13.97;;;;;;;;;;5047649;28;20045;-63
2022/11/04 11:49:00;;;;;;;21.40;13.43;;;;;;;;;;5048813;28;20487;-63
2022/11/04 11:51:48;;;;;;;17.67;12.37;;;;;;;;;;5048848;28;20099;-63
2022/11/04 11:54:14;;;;;;;14.57;11.37;;;;;;;;;;5048878;28;20419;-63
2022/11/04 11:56:42;;;;;;;13.60;10.20;;;;;;;;;;5047304;28;20136;-63
2022/11/04 11:59:18;;;;;;;14.13;9.33;;;;;;;;;;5049257;28;20087;-63
2022/11/04 12:01:53;;;;;;;11.00;8.07;;;;;;;;;;5061460;28;20052;-63
2022/11/04 12:04:20;;;;;;;8.27;5.47;;;;;;;;;;5061096;28;20102;-63
2022/11/04 12:06:47;;;;;;;7.30;3.70;;;;;;;;;;5058124;28;20044;-63
2022/11/04 12:09:32;;;;;;;8.40;5.03;;;;;;;;;;5067438;28;20442;-63
2022/11/04 12:12:17;;;;;;;9.37;4.60;;;;;;;;;;5049618;28;20131;-62
2022/11/04 12:14:50;;;;;;;9.17;4.63;;;;;;;;;;5048590;28;20041;-62
2022/11/04 12:17:31;;;;;;;6.37;4.00;;;;;;;;;;5067398;28;20068;-63
2022/11/04 12:20:12;;;;;;;9.80;4.03;;;;;;;;;;5067875;28;20045;-62
2022/11/04 12:22:55;;;;;;;10.60;5.50;;;;;;;;;;5059290;28;20051;-62
2022/11/04 12:25:21;;;;;;;15.13;4.13;;;;;;;;;;5047418;28;20148;-62
2022/11/04 12:27:54;;;;;;;7.17;3.83;;;;;;;;;;5045650;28;20135;-62
2022/11/04 12:30:24;;;;;;;9.20;4.35;;;;;;;;;;5047692;28;20041;-62
2022/11/04 12:33:05;;;;;;;9.47;4.27;;;;;;;;;;5047325;28;20560;-62
2022/11/04 12:35:50;;;;;;;8.93;5.07;;;;;;;;;;5045644;28;20499;-62
2022/11/04 12:38:45;;;;;;;9.40;4.87;;;;;;;;;;5057078;28;20043;-62
2022/11/04 12:41:30;;;;;;;9.00;4.70;;;;;;;;;;5042361;28;20484;-61
2022/11/04 12:44:01;;;;;;;7.13;4.87;;;;;;;;;;5052896;28;20097;-61
2022/11/04 12:46:30;;;;;;;14.40;5.07;;;;;;;;;;5067446;28;20495;-61
2022/11/04 12:48:56;;;;;;;12.43;5.03;;;;;;;;;;5047251;28;20049;-62
2022/11/04 12:51:22;;;;;;;8.07;3.37;;;;;;;;;;5060796;28;20055;-61
2022/11/04 12:53:48;;;;;;;8.00;3.30;;;;;;;;;;5059388;28;20127;-61
2022/11/04 12:56:16;;;;;;;11.43;3.10;;;;;;;;;;5064181;28;20090;-61
2022/11/04 12:59:01;;;;;;;5.83;2.30;;;;;;;;;;5067793;28;20087;-61
2022/11/04 13:01:37;;;;;;;7.37;2.30;;;;;;;;;;5059585;28;20142;-61
2022/11/04 13:04:05;;;;;;;7.27;2.70;;;;;;;;;;5052770;28;20041;-61
2022/11/04 13:06:34;;;;;;;7.47;1.90;;;;;;;;;;5047341;28;20041;-61
2022/11/04 13:09:08;;;;;;;7.23;1.60;;;;;;;;;;5051304;28;20118;-61
2022/11/04 13:11:39;;;;;;;7.67;2.17;;;;;;;;;;5063747;28;20061;-61
2022/11/04 13:14:18;;;;;;;6.20;2.10;;;;;;;;;;5065969;28;20805;-61
2022/11/04 13:16:46;;;;;;;4.93;1.50;;;;;;;;;;5065650;28;20052;-61
2022/11/04 13:19:27;;;;;;;8.47;1.73;;;;;;;;;;5066406;28;20052;-61
2022/11/04 13:21:54;;;;;;;3.77;1.50;;;;;;;;;;5065950;28;20045;-62
2022/11/04 13:24:30;;;;;;;6.00;2.03;;;;;;;;;;5067106;28;20080;-62
2022/11/04 13:27:01;;;;;;;7.77;2.20;;;;;;;;;;5067141;28;20048;-62
2022/11/04 13:29:27;;;;;;;7.97;2.13;;;;;;;;;;5066396;28;20056;-62
2022/11/04 13:31:59;;;;;;;10.23;2.63;;;;;;;;;;5067268;28;20454;-62
2022/11/04 13:34:38;;;;;;;6.87;1.83;;;;;;;;;;5066977;28;20044;-62
2022/11/04 13:37:03;;;;;;;7.00;1.53;;;;;;;;;;5067237;28;20049;-62
2022/11/04 13:39:42;;;;;;;4.43;1.60;;;;;;;;;;5068076;28;20041;-62
2022/11/04 13:42:16;;;;;;;5.77;1.60;;;;;;;;;;5070652;28;20136;-62
2022/11/04 13:44:46;;;;;;;8.73;1.87;;;;;;;;;;5070924;28;20098;-62
2022/11/04 13:47:23;;;;;;;6.97;1.73;;;;;;;;;;5069297;28;20128;-62
2022/11/04 13:49:50;;;;;;;5.63;1.80;;;;;;;;;;5069218;28;20087;-62
2022/11/04 13:52:16;;;;;;;6.60;1.50;;;;;;;;;;5068657;28;20075;-62
2022/11/04 13:54:45;;;;;;;5.90;1.37;;;;;;;;;;5070494;28;20071;-62
2022/11/04 13:57:14;;;;;;;6.03;1.60;;;;;;;;;;5070515;28;20033;-62
2022/11/04 13:59:42;;;;;;;8.60;1.50;;;;;;;;;;5070161;28;20127;-62
2022/11/04 14:02:11;;;;;;;4.57;1.57;;;;;;;;;;5070089;28;20193;-62
2022/11/04 14:04:38;;;;;;;8.93;1.50;;;;;;;;;;5070228;28;20037;-62
2022/11/04 14:07:09;;;;;;;6.60;1.80;;;;;;;;;;5070242;28;20052;-62
2022/11/04 14:09:44;;;;;;;9.67;1.73;;;;;;;;;;5069685;28;20053;-62
2022/11/04 14:12:12;;;;;;;6.40;1.13;;;;;;;;;;5069617;28;20498;-62
2022/11/04 14:14:43;;;;;;;7.27;1.37;;;;;;;;;;5070175;28;20205;-62
2022/11/04 14:17:27;;;;;;;5.20;1.20;;;;;;;;;;5069440;28;20426;-62
2022/11/04 14:19:54;;;;;;;5.03;1.27;;;;;;;;;;5069931;28;20100;-62
2022/11/04 14:22:21;;;;;;;5.53;1.10;;;;;;;;;;5068551;28;20499;-62
2022/11/04 14:24:57;;;;;;;2.90;0.80;;;;;;;;;;5069897;28;20041;-62
2022/11/04 14:27:28;;;;;;;5.03;1.00;;;;;;;;;;5069682;28;20049;-62
2022/11/04 14:29:54;;;;;;;6.03;0.87;;;;;;;;;;5069785;28;20125;-62
2022/11/04 14:32:25;;;;;;;3.90;0.83;;;;;;;;;;5069158;28;20045;-62
2022/11/04 14:34:59;;;;;;;5.57;1.00;;;;;;;;;;5069838;28;20410;-62
2022/11/04 14:37:27;;;;;;;3.80;0.67;;;;;;;;;;5069496;28;20495;-62
2022/11/04 14:39:57;;;;;;;4.53;1.00;;;;;;;;;;5069595;28;20052;-62
2022/11/04 14:42:43;;;;;;;3.80;1.00;;;;;;;;;;5068963;28;20083;-62
2022/11/04 14:45:15;;;;;;;4.53;1.27;;;;;;;;;;5069398;28;20049;-62
2022/11/04 14:47:42;;;;;;;8.03;1.63;;;;;;;;;;5069550;28;20094;-61
2022/11/04 14:50:16;;;;;;;5.33;1.10;;;;;;;;;;5068718;28;20101;-62
2022/11/04 14:52:51;;;;;;;8.70;1.47;;;;;;;;;;5068946;28;20151;-62
2022/11/04 14:55:18;;;;;;;6.50;1.00;;;;;;;;;;5069106;28;20040;-62
2022/11/04 14:57:46;;;;;;;7.20;2.03;;;;;;;;;;5069173;28;20053;-62
2022/11/04 15:00:27;;;;;;;6.83;1.27;;;;;;;;;;5069243;28;20047;-61
2022/11/04 15:03:03;;;;;;;6.50;1.97;;;;;;;;;;5069157;28;20138;-62
2022/11/04 15:05:32;;;;;;;8.57;1.60;;;;;;;;;;5068226;28;20049;-62
2022/11/04 15:07:58;;;;;;;9.50;1.83;;;;;;;;;;5069050;28;20045;-61
2022/11/04 15:10:28;;;;;;;7.47;1.90;;;;;;;;;;5068906;28;20049;-62
2022/11/04 15:12:59;;;;;;;5.40;1.50;;;;;;;;;;5068810;28;20084;-62
2022/11/04 15:15:29;;;;;;;10.40;1.93;;;;;;;;;;5068352;28;20808;-61